Hebert, Louisiana
Current Conditions -  °F | °C
As of 2:53 AM on Saturday 22 Nov 2014 (Local Time) from KMLU Reporting Station
Overcast Overcast  
Wind Chill: 59°   Ceiling: 7000
Heat Index: 59°   Visibility: 10mi
Dew Point: 51°   Wind: 0mph
Humidity: 75%   Direction: NA
Pressure: 30.26"   Gusts: NA
Location:  32.1631°N, 92.1971°W
Report Text: KMLU 220853Z AUTO 00000KT 10SM OVC070 15/11 A3026 RMK AO2 SLP246 T01500106 50001
Loading
Personal Weather Stations






























Interactive Weather Map New forecast layout! Learn more

10-Day Weather Forecast

Advertisements
Track Severe Weather on mobile